Date,TemperatureHighF,TemperatureAvgF,TemperatureLowF,DewpointHighF,DewpointAvgF,DewpointLowF,HumidityHigh,HumidityAvg,HumidityLow,PressureMaxIn,PressureMinIn,WindSpeedMaxMPH,WindSpeedAvgMPH,GustSpeedMaxMPH,PrecipitationSumIn
2013-9-1,88,73,61,54,46,42,64,39,20,0.00,40.00,11,7,21,0.00
2013-9-2,87,74,63,55,48,38,68,44,18,0.00,40.00,13,7,25,0.00
2013-9-3,88,75,62,53,48,42,65,43,21,0.00,40.00,14,7,27,0.00
2013-9-4,91,76,62,50,45,38,62,37,17,0.00,40.00,14,6,23,0.00
2013-9-5,88,76,61,48,43,39,59,34,18,0.00,40.00,12,6,24,0.00
2013-9-6,91,81,63,47,36,32,55,23,13,0.00,40.00,10,7,24,0.00
2013-9-7,89,75,60,41,29,-100,43,22,8,0.00,40.00,13,7,24,0.00
2013-9-8,86,73,62,53,36,24,64,28,13,0.00,40.00,10,6,30,0.00
2013-9-9,87,73,62,48,42,35,56,35,16,0.00,40.00,11,5,25,0.00
2013-9-10,83,71,61,45,39,36,45,33,20,0.00,40.00,11,7,20,0.00
2013-9-11,84,68,58,44,39,36,55,37,19,0.00,40.00,9,6,17,0.00
2013-9-12,83,71,55,46,40,34,56,35,17,0.00,40.00,11,8,19,0.00
2013-9-13,87,72,56,47,43,37,66,40,18,0.00,40.00,9,6,19,0.00
2013-9-14,89,73,58,47,39,-100,62,35,13,0.00,40.00,10,6,19,0.00
2013-9-15,88,83,63,48,30,26,58,16,11,0.00,40.00,13,9,33,0.00
2013-9-16,87,77,61,41,30,25,48,20,11,0.00,40.00,15,7,29,0.00
2013-9-17,82,68,55,43,33,15,60,32,8,0.00,40.00,17,10,29,0.00
2013-9-18,61,55,51,45,41,36,72,61,41,0.00,40.00,11,9,19,0.00
2013-9-19,82,73,56,37,14,10,49,12,8,0.00,40.00,12,5,22,0.00
2013-9-20,84,70,59,36,23,17,40,18,9,0.00,40.00,13,6,30,0.00
2013-9-21,71,59,48,41,35,-100,70,44,24,0.00,40.00,20,13,38,0.00
2013-9-22,66,53,41,38,33,27,75,50,26,0.00,40.00,21,11,41,0.00
2013-9-23,78,67,44,39,26,20,78,26,13,0.00,40.00,10,6,19,0.00
2013-9-24,81,67,52,34,24,15,51,23,9,0.00,40.00,16,11,30,0.00
2013-9-25,61,56,42,43,35,27,69,47,29,0.00,40.00,23,20,44,0.00
2013-9-26,60,48,38,33,27,23,68,47,25,0.00,40.00,15,8,26,0.00
2013-9-27,66,51,37,30,21,12,74,38,13,0.00,40.00,8,4,17,0.00
2013-9-28,72,58,46,18,13,-100,31,19,10,0.00,40.00,10,5,17,0.00
2013-9-29,80,64,47,27,20,15,34,20,10,0.00,40.00,18,11,32,0.00
2013-9-30,77,64,52,34,28,25,40,27,15,0.00,40.00,13,9,26,0.00